Anzahl Datensätze: 143
min. Temperatur: 17.3 °C
max. Temperatur: 27.8 °C
max. Windgeschwindigkeit: 11.2 km/h
Niederschlagsumme: 0.0 mm
| Datum |
Zeit |
Temp °C |
Feuchte % |
Taupunkt °C |
Luftdruck hPa |
Wind km/h |
Windrichtung |
Strahlung w/m² |
Niederschlag mm |
|---|---|---|---|---|---|---|---|---|---|
| 05.07.2025 | 00:07 | 19.1 | 80 | 15.5 | 1019.2 | 2.5 | S | 0 | 0.0 |
| 05.07.2025 | 00:17 | 19.1 | 80 | 15.7 | 1019.1 | 3.2 | NO | 0 | 0.0 |
| 05.07.2025 | 00:27 | 18.9 | 80 | 15.4 | 1019.2 | 2.2 | SO | 0 | 0.0 |
| 05.07.2025 | 00:37 | 18.6 | 82 | 15.5 | 1019.3 | 0.4 | N | 0 | 0.0 |
| 05.07.2025 | 00:47 | 18.5 | 82 | 15.4 | 1019.3 | 2.2 | NNO | 0 | 0.0 |
| 05.07.2025 | 00:57 | 18.3 | 82 | 15.3 | 1019.4 | 3.2 | N | 0 | 0.0 |
| 05.07.2025 | 01:07 | 18.4 | 81 | 15.0 | 1019.3 | 2.5 | NO | 0 | 0.0 |
| 05.07.2025 | 01:17 | 18.6 | 82 | 15.4 | 1019.3 | 0.7 | SSO | 0 | 0.0 |
| 05.07.2025 | 01:27 | 18.5 | 83 | 15.7 | 1019.3 | 2.5 | SO | 0 | 0.0 |
| 05.07.2025 | 01:37 | 18.1 | 84 | 15.5 | 1019.4 | 2.5 | N | 0 | 0.0 |
| 05.07.2025 | 01:47 | 17.9 | 84 | 15.3 | 1019.4 | 1.1 | NNO | 0 | 0.0 |
| 05.07.2025 | 01:57 | 17.8 | 85 | 15.2 | 1019.4 | 1.1 | N | 0 | 0.0 |
| 05.07.2025 | 02:07 | 17.8 | 85 | 15.2 | 1019.3 | 1.8 | ONO | 0 | 0.0 |
| 05.07.2025 | 02:17 | 17.6 | 85 | 15.0 | 1019.3 | 2.5 | NNO | 0 | 0.0 |
| 05.07.2025 | 02:27 | 17.9 | 85 | 15.4 | 1019.2 | 1.8 | N | 0 | 0.0 |
| 05.07.2025 | 02:37 | 17.6 | 86 | 15.2 | 1019.3 | 3.2 | SSW | 0 | 0.0 |
| 05.07.2025 | 02:47 | 17.3 | 86 | 15.0 | 1019.3 | 1.8 | NNO | 0 | 0.0 |
| 05.07.2025 | 02:57 | 17.3 | 86 | 15.0 | 1019.3 | 0.4 | N | 0 | 0.0 |
| 05.07.2025 | 03:07 | 17.8 | 84 | 15.0 | 1019.2 | 0.7 | N | 0 | 0.0 |
| 05.07.2025 | 03:17 | 17.6 | 86 | 15.2 | 1019.2 | 2.9 | SSW | 0 | 0.0 |
| 05.07.2025 | 03:27 | 17.3 | 87 | 15.1 | 1019.2 | 1.8 | NO | 0 | 0.0 |
| 05.07.2025 | 03:37 | 17.5 | 87 | 15.3 | 1019.0 | 2.9 | S | 0 | 0.0 |
| 05.07.2025 | 03:47 | 17.5 | 86 | 15.2 | 1018.9 | 1.1 | N | 0 | 0.0 |
| 05.07.2025 | 03:57 | 17.3 | 88 | 15.2 | 1018.7 | 0.7 | N | 0 | 0.0 |
| 05.07.2025 | 04:07 | 17.4 | 88 | 15.4 | 1018.5 | 2.5 | S | 0 | 0.0 |
| 05.07.2025 | 04:17 | 17.4 | 87 | 15.3 | 1018.4 | 2.2 | N | 0 | 0.0 |
| 05.07.2025 | 04:27 | 17.6 | 87 | 15.4 | 1018.1 | 4.0 | S | 0 | 0.0 |
| 05.07.2025 | 04:38 | 17.5 | 86 | 15.1 | 1018.1 | 2.5 | SSW | 0 | 0.0 |
| 05.07.2025 | 04:48 | 17.3 | 87 | 15.2 | 1018.1 | 2.5 | S | 0 | 0.0 |
| 05.07.2025 | 04:58 | 17.4 | 86 | 15.0 | 1018.2 | 1.1 | NNO | 0 | 0.0 |
| 05.07.2025 | 05:08 | 17.6 | 85 | 15.1 | 1018.0 | 1.1 | SW | 0 | 0.0 |
| 05.07.2025 | 05:18 | 17.3 | 87 | 15.1 | 1018.1 | 0.7 | N | 0 | 0.0 |
| 05.07.2025 | 05:28 | 17.5 | 86 | 15.2 | 1017.9 | 0.4 | N | 0 | 0.0 |
| 05.07.2025 | 05:38 | 17.4 | 87 | 15.2 | 1017.8 | 3.2 | S | 0 | 0.0 |
| 05.07.2025 | 05:48 | 17.6 | 86 | 15.2 | 1017.8 | 1.1 | N | 2 | 0.0 |
| 05.07.2025 | 05:58 | 17.5 | 87 | 15.3 | 1017.8 | 0.7 | SSW | 3 | 0.0 |
| 05.07.2025 | 06:08 | 17.4 | 87 | 15.2 | 1017.9 | 0.4 | N | 4 | 0.0 |
| 05.07.2025 | 06:18 | 17.5 | 87 | 15.3 | 1017.9 | 2.2 | S | 6 | 0.0 |
| 05.07.2025 | 06:28 | 17.6 | 87 | 15.4 | 1017.8 | 1.4 | S | 8 | 0.0 |
| 05.07.2025 | 06:38 | 17.7 | 85 | 15.3 | 1017.7 | 1.8 | S | 11 | 0.0 |
| 05.07.2025 | 06:48 | 17.5 | 87 | 15.3 | 1017.8 | 2.2 | SO | 17 | 0.0 |
| 05.07.2025 | 06:58 | 17.3 | 88 | 15.3 | 1017.7 | 1.8 | N | 25 | 0.0 |
| 05.07.2025 | 07:08 | 17.6 | 86 | 15.3 | 1017.7 | 1.8 | S | 30 | 0.0 |
| 05.07.2025 | 07:18 | 17.8 | 86 | 15.4 | 1017.9 | 1.8 | S | 28 | 0.0 |
| 05.07.2025 | 07:28 | 17.7 | 87 | 15.5 | 1018.0 | 2.9 | SSO | 45 | 0.0 |
| 05.07.2025 | 07:38 | 17.3 | 88 | 15.3 | 1018.1 | 5.8 | S | 104 | 0.0 |
| 05.07.2025 | 07:48 | 17.7 | 86 | 15.4 | 1018.0 | 1.4 | N | 151 | 0.0 |
| 05.07.2025 | 07:58 | 18.3 | 84 | 15.5 | 1017.8 | 1.1 | S | 100 | 0.0 |
| 05.07.2025 | 08:08 | 18.0 | 84 | 15.3 | 1017.8 | 1.8 | S | 119 | 0.0 |
| 05.07.2025 | 08:18 | 19.4 | 79 | 15.7 | 1017.4 | 0.7 | N | 249 | 0.0 |
| 05.07.2025 | 08:28 | 18.5 | 82 | 15.4 | 1017.5 | 2.9 | S | 276 | 0.0 |
| 05.07.2025 | 08:38 | 18.9 | 79 | 15.2 | 1017.4 | 2.2 | S | 198 | 0.0 |
| 05.07.2025 | 08:48 | 19.2 | 80 | 15.7 | 1017.3 | 4.3 | SSW | 322 | 0.0 |
| 05.07.2025 | 08:58 | 19.0 | 80 | 15.4 | 1017.4 | 2.5 | SSW | 184 | 0.0 |
| 05.07.2025 | 09:08 | 19.0 | 79 | 15.3 | 1017.5 | 2.5 | SSW | 163 | 0.0 |
| 05.07.2025 | 09:18 | 18.9 | 81 | 15.6 | 1017.4 | 2.5 | SSW | 172 | 0.0 |
| 05.07.2025 | 09:28 | 19.5 | 78 | 15.6 | 1017.3 | 2.5 | S | 193 | 0.0 |
| 05.07.2025 | 09:38 | 20.3 | 77 | 16.1 | 1016.9 | 1.4 | WSW | 231 | 0.0 |
| 05.07.2025 | 09:49 | 20.1 | 78 | 16.1 | 1016.8 | 3.2 | SSW | 232 | 0.0 |
| 05.07.2025 | 09:59 | 20.0 | 77 | 15.9 | 1016.7 | 2.9 | S | 223 | 0.0 |
| 05.07.2025 | 10:09 | 19.7 | 80 | 16.2 | 1016.7 | 3.6 | S | 575 | 0.0 |
| 05.07.2025 | 10:19 | 19.9 | 79 | 16.2 | 1016.4 | 6.1 | S | 344 | 0.0 |
| 05.07.2025 | 10:29 | 20.4 | 77 | 16.3 | 1016.2 | 3.2 | SSW | 599 | 0.0 |
| 05.07.2025 | 10:39 | 21.1 | 73 | 16.1 | 1016.1 | 6.1 | S | 668 | 0.0 |
| 05.07.2025 | 10:49 | 21.4 | 69 | 15.5 | 1016.1 | 5.4 | SSW | 678 | 0.0 |
| 05.07.2025 | 10:59 | 24.2 | 62 | 16.4 | 1015.6 | 4.7 | SSW | 670 | 0.0 |
| 05.07.2025 | 11:09 | 24.7 | 60 | 16.5 | 1015.4 | 1.4 | NNW | 595 | 0.0 |
| 05.07.2025 | 11:19 | 24.0 | 64 | 16.8 | 1015.5 | 2.2 | W | 592 | 0.0 |
| 05.07.2025 | 11:29 | 23.3 | 66 | 16.7 | 1015.6 | 1.1 | S | 603 | 0.0 |
| 05.07.2025 | 11:39 | 25.1 | 61 | 17.0 | 1015.1 | 6.8 | SSW | 617 | 0.0 |
| 05.07.2025 | 11:49 | 23.9 | 66 | 17.1 | 1015.3 | 5.8 | WSW | 631 | 0.0 |
| 05.07.2025 | 11:59 | 24.3 | 64 | 17.1 | 1015.2 | 5.0 | SSW | 644 | 0.0 |
| 05.07.2025 | 12:09 | 25.1 | 56 | 15.9 | 1015.1 | 5.8 | SW | 656 | 0.0 |
| 05.07.2025 | 12:19 | 24.1 | 61 | 16.0 | 1015.2 | 1.4 | SSW | 676 | 0.0 |
| 05.07.2025 | 12:29 | 25.2 | 57 | 16.2 | 1014.8 | 2.2 | S | 671 | 0.0 |
| 05.07.2025 | 12:39 | 24.9 | 58 | 16.1 | 1014.8 | 4.7 | SSW | 691 | 0.0 |
| 05.07.2025 | 12:49 | 24.8 | 58 | 16.0 | 1014.6 | 4.7 | SSW | 699 | 0.0 |
| 05.07.2025 | 12:59 | 24.1 | 60 | 15.7 | 1014.7 | 6.5 | SSW | 699 | 0.0 |
| 05.07.2025 | 13:09 | 23.3 | 65 | 16.4 | 1015.1 | 4.7 | S | 714 | 0.0 |
| 05.07.2025 | 13:19 | 25.2 | 56 | 15.7 | 1014.5 | 4.3 | SSW | 718 | 0.0 |
| 05.07.2025 | 13:29 | 23.8 | 60 | 15.6 | 1014.8 | 3.6 | SSW | 727 | 0.0 |
| 05.07.2025 | 13:39 | 25.8 | 53 | 15.5 | 1014.1 | 5.8 | SSW | 719 | 0.0 |
| 05.07.2025 | 13:49 | 25.9 | 52 | 15.3 | 1014.0 | 4.0 | SSW | 705 | 0.0 |
| 05.07.2025 | 13:59 | 27.2 | 48 | 15.3 | 1013.7 | 4.3 | SSW | 709 | 0.0 |
| 05.07.2025 | 14:09 | 26.6 | 51 | 15.6 | 1013.7 | 5.0 | SSW | 270 | 0.0 |
| 05.07.2025 | 14:19 | 26.3 | 49 | 14.8 | 1013.7 | 5.8 | WSW | 263 | 0.0 |
| 05.07.2025 | 14:29 | 25.9 | 50 | 14.7 | 1013.7 | 2.9 | SSW | 687 | 0.0 |
| 05.07.2025 | 14:39 | 27.1 | 46 | 14.6 | 1013.3 | 4.7 | SSW | 687 | 0.0 |
| 05.07.2025 | 14:49 | 25.9 | 53 | 15.7 | 1013.4 | 7.6 | SSW | 699 | 0.0 |
| 05.07.2025 | 15:00 | 25.7 | 55 | 16.0 | 1013.2 | 7.2 | S | 681 | 0.0 |
| 05.07.2025 | 15:10 | 25.3 | 55 | 15.7 | 1013.2 | 9.0 | S | 695 | 0.0 |
| 05.07.2025 | 15:20 | 25.9 | 50 | 14.7 | 1013.0 | 4.0 | S | 677 | 0.0 |
| 05.07.2025 | 15:30 | 25.3 | 52 | 14.8 | 1013.0 | 6.8 | S | 697 | 0.0 |
| 05.07.2025 | 15:40 | 25.1 | 51 | 14.4 | 1012.9 | 5.4 | S | 264 | 0.0 |
| 05.07.2025 | 15:50 | 26.8 | 47 | 14.5 | 1012.5 | 4.0 | SSW | 506 | 0.0 |
| 05.07.2025 | 16:00 | 27.8 | 46 | 15.0 | 1012.1 | 4.3 | SSW | 638 | 0.0 |
| 05.07.2025 | 16:10 | 27.1 | 46 | 14.6 | 1012.4 | 4.3 | SSW | 258 | 0.0 |
| 05.07.2025 | 16:20 | 26.7 | 49 | 15.1 | 1012.2 | 6.1 | S | 287 | 0.0 |
| 05.07.2025 | 16:30 | 26.4 | 51 | 15.6 | 1012.3 | 8.6 | S | 631 | 0.0 |
| 05.07.2025 | 16:40 | 25.8 | 49 | 14.2 | 1012.3 | 4.7 | S | 241 | 0.0 |
| 05.07.2025 | 16:50 | 26.4 | 50 | 15.1 | 1012.0 | 4.0 | SSW | 223 | 0.0 |
| 05.07.2025 | 17:00 | 26.3 | 50 | 15.1 | 1012.2 | 1.4 | WSW | 203 | 0.0 |
| 05.07.2025 | 17:10 | 26.6 | 48 | 14.7 | 1012.0 | 4.3 | SSW | 528 | 0.0 |
| 05.07.2025 | 17:20 | 26.1 | 51 | 15.2 | 1012.0 | 5.4 | SSW | 514 | 0.0 |
| 05.07.2025 | 17:30 | 26.4 | 52 | 15.7 | 1012.0 | 2.9 | S | 473 | 0.0 |
| 05.07.2025 | 17:40 | 26.2 | 52 | 15.5 | 1011.9 | 5.0 | S | 428 | 0.0 |
| 05.07.2025 | 17:50 | 26.2 | 55 | 16.4 | 1011.8 | 6.1 | SSW | 372 | 0.0 |
| 05.07.2025 | 18:00 | 25.7 | 52 | 15.2 | 1011.9 | 5.8 | S | 393 | 0.0 |
| 05.07.2025 | 18:10 | 25.9 | 50 | 14.6 | 1012.0 | 2.9 | S | 189 | 0.0 |
| 05.07.2025 | 18:20 | 25.7 | 51 | 14.8 | 1011.9 | 4.0 | S | 197 | 0.0 |
| 05.07.2025 | 18:30 | 26.0 | 51 | 15.1 | 1011.7 | 0.7 | S | 115 | 0.0 |
| 05.07.2025 | 18:40 | 25.8 | 56 | 16.4 | 1011.7 | 3.2 | S | 124 | 0.0 |
| 05.07.2025 | 18:50 | 26.4 | 53 | 16.0 | 1011.5 | 5.0 | S | 134 | 0.0 |
| 05.07.2025 | 19:00 | 26.3 | 52 | 15.7 | 1011.6 | 4.0 | S | 110 | 0.0 |
| 05.07.2025 | 19:10 | 26.4 | 53 | 16.0 | 1011.5 | 4.7 | SO | 221 | 0.0 |
| 05.07.2025 | 19:20 | 26.6 | 54 | 16.5 | 1011.4 | 2.9 | S | 183 | 0.0 |
| 05.07.2025 | 19:30 | 26.3 | 52 | 15.5 | 1011.6 | 2.9 | N | 83 | 0.0 |
| 05.07.2025 | 19:40 | 25.3 | 60 | 16.9 | 1011.7 | 2.2 | SSO | 91 | 0.0 |
| 05.07.2025 | 19:50 | 25.4 | 56 | 15.8 | 1011.6 | 2.9 | WSW | 65 | 0.0 |
| 05.07.2025 | 20:01 | 25.0 | 60 | 16.6 | 1011.8 | 3.6 | NNW | 48 | 0.0 |
| 05.07.2025 | 20:11 | 24.8 | 61 | 16.6 | 1011.7 | 0.7 | N | 52 | 0.0 |
| 05.07.2025 | 20:21 | 24.6 | 60 | 16.4 | 1011.8 | 2.5 | S | 32 | 0.0 |
| 05.07.2025 | 20:31 | 24.0 | 62 | 16.4 | 1011.8 | 4.0 | N | 29 | 0.0 |
| 05.07.2025 | 20:41 | 24.3 | 65 | 17.2 | 1011.7 | 1.8 | WSW | 24 | 0.0 |
| 05.07.2025 | 20:51 | 23.9 | 64 | 16.6 | 1011.9 | 2.9 | S | 12 | 0.0 |
| 05.07.2025 | 21:01 | 23.3 | 62 | 15.6 | 1012.0 | 3.6 | NO | 11 | 0.0 |
| 05.07.2025 | 21:11 | 23.2 | 66 | 16.5 | 1012.1 | 0.7 | N | 4 | 0.0 |
| 05.07.2025 | 21:21 | 22.8 | 65 | 15.9 | 1012.4 | 4.7 | N | 2 | 0.0 |
| 05.07.2025 | 21:31 | 22.6 | 65 | 15.6 | 1012.4 | 5.0 | NNO | 0 | 0.0 |
| 05.07.2025 | 21:41 | 22.4 | 67 | 16.0 | 1012.6 | 2.9 | N | 0 | 0.0 |
| 05.07.2025 | 21:51 | 22.3 | 65 | 15.4 | 1012.8 | 2.9 | NNO | 0 | 0.0 |
| 05.07.2025 | 22:01 | 22.2 | 64 | 15.1 | 1012.9 | 1.8 | N | 0 | 0.0 |
| 05.07.2025 | 22:11 | 21.8 | 68 | 15.7 | 1013.0 | 3.2 | N | 0 | 0.0 |
| 05.07.2025 | 22:21 | 21.7 | 65 | 14.9 | 1013.2 | 3.6 | N | 0 | 0.0 |
| 05.07.2025 | 22:31 | 21.8 | 66 | 15.2 | 1013.2 | 3.2 | NNO | 0 | 0.0 |
| 05.07.2025 | 22:41 | 21.7 | 69 | 15.9 | 1013.3 | 0.7 | N | 0 | 0.0 |
| 05.07.2025 | 22:51 | 21.1 | 64 | 14.1 | 1013.3 | 3.6 | N | 0 | 0.0 |
| 05.07.2025 | 23:01 | 21.2 | 62 | 13.7 | 1013.4 | 4.3 | NO | 0 | 0.0 |
| 05.07.2025 | 23:11 | 20.9 | 63 | 13.5 | 1013.4 | 4.0 | NO | 0 | 0.0 |
| 05.07.2025 | 23:21 | 20.8 | 62 | 13.3 | 1013.6 | 3.6 | NNO | 0 | 0.0 |
| 05.07.2025 | 23:31 | 20.5 | 61 | 12.7 | 1013.5 | 4.3 | N | 0 | 0.0 |
| 05.07.2025 | 23:41 | 20.4 | 66 | 13.9 | 1013.6 | 4.3 | N | 0 | 0.0 |
| 05.07.2025 | 23:51 | 20.1 | 62 | 12.4 | 1013.7 | 5.0 | NNO | 0 | 0.0 |